Time;durP1;ratioP1;P1;durP2;ratioP2;P2;SDS_P1;SDS_P2;PMS_P1;PMS_P2;Temp;Humidity;BMP_temperature;BMP_pressure;BME280_temperature;BME280_humidity;BME280_pressure;Samples;Min_cycle;Max_cycle;Signal;HPM_P1;HPM_P2
2021/05/09 00:02:12;;;;;;;10.30;4.38;;;;;;;9.83;53.01;100571.31;5004489;28;20034;-66
2021/05/09 00:04:37;;;;;;;5.78;3.63;;;;;;;9.71;53.00;100570.06;5005563;28;20057;-65
2021/05/09 00:07:03;;;;;;;5.60;3.47;;;;;;;9.68;53.02;100565.81;5002147;28;20438;-66
2021/05/09 00:09:28;;;;;;;4.93;3.70;;;;;;;9.70;53.12;100561.38;4990558;28;20492;-66
2021/05/09 00:11:54;;;;;;;6.82;4.50;;;;;;;9.78;52.56;100559.28;5006758;28;20042;-65
2021/05/09 00:14:20;;;;;;;4.03;3.35;;;;;;;9.87;52.60;100557.25;5005351;28;20040;-66
2021/05/09 00:16:45;;;;;;;5.75;4.15;;;;;;;9.87;52.22;100557.25;5001849;28;20088;-66
2021/05/09 00:19:11;;;;;;;7.05;3.75;;;;;;;9.94;52.65;100554.28;4999509;28;20061;-66
2021/05/09 00:21:37;;;;;;;5.32;3.53;;;;;;;9.82;52.67;100548.75;5006904;28;20495;-69
2021/05/09 00:24:03;;;;;;;4.53;3.83;;;;;;;9.89;52.65;100551.03;5006991;28;20057;-65
2021/05/09 00:26:28;;;;;;;4.90;3.72;;;;;;;9.81;52.90;100550.50;4989733;28;20522;-65
2021/05/09 00:28:54;;;;;;;5.28;3.83;;;;;;;9.46;53.37;100546.72;5004481;28;20061;-63
2021/05/09 00:31:19;;;;;;;5.25;3.65;;;;;;;9.69;53.48;100553.59;5003899;28;20034;-63
2021/05/09 00:33:45;;;;;;;4.75;3.70;;;;;;;9.71;53.58;100547.41;4983998;28;20033;-63
2021/05/09 00:36:10;;;;;;;6.97;4.75;;;;;;;9.64;53.38;100543.34;5003994;28;20551;-63
2021/05/09 00:38:35;;;;;;;4.95;3.80;;;;;;;9.58;54.25;100544.44;5004036;28;20034;-64
2021/05/09 00:41:01;;;;;;;6.43;4.05;;;;;;;9.59;53.83;100540.09;5006045;28;20054;-64
2021/05/09 00:43:27;;;;;;;8.98;4.30;;;;;;;9.68;53.38;100531.88;5003189;28;20068;-64
2021/05/09 00:45:53;;;;;;;7.68;3.25;;;;;;;9.64;53.33;100545.13;5005810;28;20578;-64
2021/05/09 00:48:19;;;;;;;6.15;3.47;;;;;;;9.40;54.37;100543.44;5002022;28;20036;-66
2021/05/09 00:50:45;;;;;;;5.18;3.03;;;;;;;9.61;53.58;100540.88;4984823;28;20026;-67
2021/05/09 00:53:13;;;;;;;6.35;3.28;;;;;;;9.58;53.88;100541.00;5002921;28;20105;-66
2021/05/09 00:55:39;;;;;;;4.88;3.42;;;;;;;9.62;54.00;100537.34;5001090;28;20119;-68
2021/05/09 00:58:10;;;;;;;5.05;3.60;;;;;;;9.67;53.55;100535.38;4985427;28;20038;-67
2021/05/09 01:00:36;;;;;;;6.10;3.58;;;;;;;9.63;53.56;100533.81;4989663;28;20555;-68
2021/05/09 01:03:07;;;;;;;6.10;3.55;;;;;;;9.55;54.12;100536.75;5003816;28;20169;-67
2021/05/09 01:05:33;;;;;;;6.15;3.58;;;;;;;9.51;54.26;100529.97;4986298;28;20037;-67
2021/05/09 01:08:01;;;;;;;6.13;3.72;;;;;;;9.53;54.07;100535.97;4988423;28;20033;-66
2021/05/09 01:10:27;;;;;;;5.82;3.55;;;;;;;9.51;53.92;100534.34;4988514;28;20021;-68
2021/05/09 01:12:54;;;;;;;5.68;3.85;;;;;;;9.43;54.29;100531.19;5003344;28;20036;-68
2021/05/09 01:15:21;;;;;;;6.35;3.42;;;;;;;9.61;53.91;100530.44;4990614;28;20082;-68
2021/05/09 01:17:47;;;;;;;4.82;4.18;;;;;;;9.57;54.04;100528.88;4987904;28;20371;-65
2021/05/09 01:20:13;;;;;;;6.25;3.75;;;;;;;9.59;53.59;100527.06;4998519;28;20383;-65
2021/05/09 01:22:39;;;;;;;7.00;3.50;;;;;;;9.59;53.89;100529.66;4984484;28;20109;-65
2021/05/09 01:25:06;;;;;;;9.48;4.10;;;;;;;9.58;54.05;100526.19;5003367;28;20382;-65
2021/05/09 01:27:32;;;;;;;6.80;3.60;;;;;;;9.67;53.88;100524.13;4986995;28;20153;-65
2021/05/09 01:29:58;;;;;;;6.70;3.25;;;;;;;9.76;53.14;100527.16;4989600;28;20570;-65
2021/05/09 01:32:23;;;;;;;6.43;3.88;;;;;;;9.68;53.88;100525.78;5001259;28;20034;-65
2021/05/09 01:34:49;;;;;;;7.63;3.65;;;;;;;9.65;53.78;100525.94;5000568;28;20037;-64
2021/05/09 01:37:15;;;;;;;5.03;3.38;;;;;;;9.61;53.93;100533.06;5001601;28;20519;-64
2021/05/09 01:39:41;;;;;;;4.75;3.80;;;;;;;9.57;54.31;100526.25;5000214;28;20041;-68
2021/05/09 01:42:07;;;;;;;6.28;3.58;;;;;;;9.54;54.14;100521.16;4984788;28;20034;-69
2021/05/09 01:44:35;;;;;;;5.40;3.50;;;;;;;9.47;54.45;100531.00;4984465;28;20444;-68
2021/05/09 01:47:00;;;;;;;4.18;3.78;;;;;;;9.60;54.11;100523.53;4985731;28;20458;-69
2021/05/09 01:49:26;;;;;;;5.82;3.65;;;;;;;9.50;54.21;100525.66;4987928;28;20057;-68
2021/05/09 01:51:54;;;;;;;6.05;3.55;;;;;;;9.61;53.58;100514.78;4984369;28;20133;-68
2021/05/09 01:54:20;;;;;;;4.55;3.78;;;;;;;9.57;53.83;100515.81;4982763;28;20034;-68
2021/05/09 01:56:46;;;;;;;4.78;3.33;;;;;;;9.54;53.85;100516.81;4986913;28;20445;-68
2021/05/09 01:59:12;;;;;;;5.00;3.58;;;;;;;9.53;53.72;100517.69;4987895;28;20041;-68
2021/05/09 02:01:45;;;;;;;5.05;3.53;;;;;;;9.42;53.60;100506.88;4981674;28;20041;-65
2021/05/09 02:04:30;;;;;;;10.20;3.60;;;;;;;9.35;54.34;100510.63;4996955;28;20048;-65
2021/05/09 02:06:58;;;;;;;7.07;3.33;;;;;;;9.34;54.01;100507.19;4981274;28;20338;-65
2021/05/09 02:09:23;;;;;;;4.43;3.25;;;;;;;9.30;54.39;100505.63;4981515;28;20022;-65
2021/05/09 02:11:50;;;;;;;4.93;4.15;;;;;;;9.28;54.31;100512.66;5001740;28;20543;-64
2021/05/09 02:14:32;;;;;;;5.60;3.67;;;;;;;9.23;54.28;100504.16;4989817;28;20040;-65
2021/05/09 02:17:02;;;;;;;5.20;3.80;;;;;;;9.20;54.52;100499.06;5000549;28;20124;-65
2021/05/09 02:19:28;;;;;;;4.57;3.75;;;;;;;9.15;54.16;100496.63;5003398;28;20539;-65
2021/05/09 02:21:53;;;;;;;9.38;4.70;;;;;;;9.15;54.49;100490.59;4986847;28;20033;-65
2021/05/09 02:24:19;;;;;;;5.05;4.28;;;;;;;9.06;54.85;100490.94;4996947;28;20037;-65
2021/05/09 02:26:47;;;;;;;5.80;3.60;;;;;;;9.03;54.80;100491.94;4983180;28;20038;-65
2021/05/09 02:29:13;;;;;;;5.88;4.03;;;;;;;8.94;55.16;100487.91;4987646;28;20037;-65
2021/05/09 02:31:40;;;;;;;7.22;4.53;;;;;;;8.94;55.25;100487.06;5001400;28;20113;-66
2021/05/09 02:34:17;;;;;;;9.35;4.78;;;;;;;9.00;54.98;100488.59;4984485;28;20038;-67
2021/05/09 02:36:45;;;;;;;6.90;4.07;;;;;;;8.96;54.95;100486.09;4987178;28;20029;-66
2021/05/09 02:39:12;;;;;;;8.32;3.50;;;;;;;8.97;54.98;100487.78;4987680;28;20045;-66
2021/05/09 02:41:37;;;;;;;7.47;4.70;;;;;;;8.96;54.91;100486.09;4982885;28;20577;-66
2021/05/09 02:44:04;;;;;;;7.70;4.22;;;;;;;8.89;54.87;100484.63;4987928;28;20223;-65
2021/05/09 02:46:30;;;;;;;10.02;4.40;;;;;;;8.84;55.15;100489.19;4987716;28;20457;-67
2021/05/09 02:48:56;;;;;;;6.35;4.03;;;;;;;8.82;54.81;100482.34;5003362;28;20037;-66
2021/05/09 02:51:21;;;;;;;6.75;4.22;;;;;;;8.74;55.42;100480.88;4987075;28;20036;-66
2021/05/09 02:53:47;;;;;;;4.53;3.78;;;;;;;8.72;55.41;100476.63;4988218;28;20560;-66
2021/05/09 02:56:13;;;;;;;10.00;4.80;;;;;;;8.82;55.28;100479.72;4984228;28;20038;-66
2021/05/09 02:58:38;;;;;;;6.50;4.40;;;;;;;8.74;55.13;100485.25;4986065;28;20118;-67
2021/05/09 03:01:04;;;;;;;7.63;4.45;;;;;;;8.65;55.34;100480.31;5002542;28;20034;-66
2021/05/09 03:03:30;;;;;;;8.82;4.90;;;;;;;8.70;55.42;100483.63;4999535;28;20413;-66
2021/05/09 03:05:55;;;;;;;7.18;4.47;;;;;;;8.73;55.05;100483.53;4970136;28;20382;-67
2021/05/09 03:08:21;;;;;;;8.30;4.57;;;;;;;8.68;55.60;100481.06;5000133;28;20403;-67
2021/05/09 03:10:48;;;;;;;8.93;4.40;;;;;;;8.75;55.50;100481.72;4986827;28;20442;-67
2021/05/09 03:13:15;;;;;;;5.60;4.45;;;;;;;8.77;55.75;100485.97;4997381;28;20067;-66
2021/05/09 03:15:40;;;;;;;5.60;4.60;;;;;;;8.67;55.97;100479.38;4999941;28;20034;-66
2021/05/09 03:18:06;;;;;;;4.75;3.67;;;;;;;8.85;54.95;100482.19;5002987;28;20044;-66
2021/05/09 03:20:31;;;;;;;7.38;4.88;;;;;;;8.85;55.33;100477.88;4998039;28;20030;-66
2021/05/09 03:22:57;;;;;;;6.97;4.90;;;;;;;8.91;55.52;100477.59;5004432;28;20120;-66
2021/05/09 03:25:22;;;;;;;14.05;5.88;;;;;;;8.94;55.60;100482.72;4988568;28;20113;-66
2021/05/09 03:27:48;;;;;;;8.90;4.45;;;;;;;8.89;55.26;100483.78;4985478;28;20301;-65
2021/05/09 03:30:14;;;;;;;12.85;4.40;;;;;;;8.89;55.69;100481.19;4999781;28;20481;-65
2021/05/09 03:32:39;;;;;;;5.65;4.20;;;;;;;8.95;55.22;100492.22;5001048;28;20034;-65
2021/05/09 03:35:07;;;;;;;9.68;4.53;;;;;;;8.90;54.99;100482.91;4970376;28;20080;-65
2021/05/09 03:37:33;;;;;;;7.07;4.43;;;;;;;8.88;55.45;100485.53;4998166;28;20026;-65
2021/05/09 03:39:59;;;;;;;7.97;4.13;;;;;;;8.84;55.68;100478.75;4998531;28;20044;-64
2021/05/09 03:42:24;;;;;;;8.95;4.72;;;;;;;8.93;55.29;100486.22;5001229;28;20429;-65
2021/05/09 03:44:49;;;;;;;6.97;3.90;;;;;;;8.94;55.43;100492.25;4998727;28;20060;-65
2021/05/09 03:47:15;;;;;;;5.90;4.28;;;;;;;8.90;55.53;100481.13;4986117;28;20029;-67
2021/05/09 03:49:41;;;;;;;5.90;3.38;;;;;;;8.92;55.24;100481.91;5001908;28;20042;-69
2021/05/09 03:52:06;;;;;;;5.07;3.83;;;;;;;8.91;55.63;100488.03;4967515;28;20430;-69
2021/05/09 03:54:32;;;;;;;6.05;3.97;;;;;;;9.00;55.28;100480.75;4984075;28;20136;-69
2021/05/09 03:56:57;;;;;;;7.20;4.13;;;;;;;8.97;55.63;100477.38;5000454;28;20521;-69
2021/05/09 03:59:23;;;;;;;10.43;5.30;;;;;;;9.01;55.67;100469.41;4982408;28;20037;-67
2021/05/09 04:01:48;;;;;;;7.80;4.25;;;;;;;9.06;55.80;100481.38;4999017;28;20725;-67
2021/05/09 04:04:14;;;;;;;4.25;3.40;;;;;;;9.08;55.69;100468.28;4996957;28;20402;-68
2021/05/09 04:06:39;;;;;;;6.72;3.35;;;;;;;9.18;55.42;100474.81;4981882;28;20032;-65
2021/05/09 04:09:08;;;;;;;6.18;3.72;;;;;;;9.23;55.35;100472.00;4987432;28;20045;-68
2021/05/09 04:11:34;;;;;;;5.22;3.70;;;;;;;9.31;55.37;100473.38;5003889;28;20026;-67
2021/05/09 04:14:00;;;;;;;4.88;3.08;;;;;;;9.34;55.63;100475.91;4984649;28;20110;-65
2021/05/09 04:16:25;;;;;;;7.80;3.45;;;;;;;9.48;55.06;100469.25;4985728;28;20041;-65
2021/05/09 04:18:51;;;;;;;6.53;3.70;;;;;;;9.45;55.18;100470.22;5001152;28;20048;-67
2021/05/09 04:21:16;;;;;;;5.78;3.42;;;;;;;9.62;54.83;100469.50;5000087;28;20776;-66
2021/05/09 04:23:42;;;;;;;6.53;3.90;;;;;;;9.68;54.74;100464.03;5004150;28;20157;-66
2021/05/09 04:26:07;;;;;;;8.23;3.65;;;;;;;9.71;54.54;100468.28;4998766;28;20081;-67
2021/05/09 04:28:32;;;;;;;6.32;3.63;;;;;;;9.44;55.59;100475.50;5000353;28;20036;-67
2021/05/09 04:30:58;;;;;;;6.57;3.60;;;;;;;9.80;54.69;100463.53;4997869;28;20799;-66
2021/05/09 04:33:25;;;;;;;10.52;4.15;;;;;;;9.88;54.14;100465.81;4998799;28;20042;-66
2021/05/09 04:35:51;;;;;;;7.43;3.20;;;;;;;9.95;54.44;100467.25;5002699;28;20213;-65
2021/05/09 04:38:18;;;;;;;6.57;3.85;;;;;;;9.97;54.16;100457.59;4981222;28;20557;-67
2021/05/09 04:40:44;;;;;;;8.43;3.53;;;;;;;10.02;54.25;100462.59;4996861;28;20079;-67
2021/05/09 04:43:19;;;;;;;7.72;4.35;;;;;;;10.20;53.81;100455.72;4985060;28;20026;-69
2021/05/09 04:45:46;;;;;;;13.23;3.53;;;;;;;10.61;52.85;100461.63;5001231;28;20428;-69
2021/05/09 04:48:11;;;;;;;11.50;3.70;;;;;;;10.66;52.75;100455.34;5000005;28;20242;-68
2021/05/09 04:50:37;;;;;;;3.78;3.08;;;;;;;11.47;50.73;100456.66;5005043;28;20022;-68
2021/05/09 04:53:02;;;;;;;5.03;4.05;;;;;;;11.53;50.22;100451.13;5002349;28;20025;-68
2021/05/09 04:55:28;;;;;;;8.98;3.42;;;;;;;11.63;50.25;100456.72;5004289;28;20034;-68
2021/05/09 04:57:53;;;;;;;4.13;3.15;;;;;;;11.72;49.38;100453.63;5007462;28;20034;-67
2021/05/09 05:00:19;;;;;;;4.45;2.97;;;;;;;12.39;48.21;100451.88;5005087;28;20033;-68
2021/05/09 05:02:46;;;;;;;8.05;3.00;;;;;;;13.15;46.72;100450.31;5001345;28;20194;-67
2021/05/09 05:05:13;;;;;;;6.60;2.80;;;;;;;13.68;44.87;100449.00;5003719;28;20061;-66
2021/05/09 05:07:39;;;;;;;3.65;2.75;;;;;;;14.33;43.72;100446.72;5004903;28;20026;-67
2021/05/09 05:10:05;;;;;;;3.85;2.40;;;;;;;14.72;42.86;100449.56;4983463;28;20352;-69
2021/05/09 05:12:31;;;;;;;7.32;2.60;;;;;;;14.87;42.15;100445.13;5003489;28;20038;-66
2021/05/09 05:14:56;;;;;;;7.05;2.72;;;;;;;15.04;42.45;100444.03;5002627;28;20044;-69
2021/05/09 05:17:24;;;;;;;4.13;3.10;;;;;;;15.49;40.67;100440.13;5003600;28;20048;-68
2021/05/09 05:19:50;;;;;;;3.42;2.47;;;;;;;15.78;40.38;100439.94;4986311;28;20026;-68
2021/05/09 05:22:15;;;;;;;4.10;2.55;;;;;;;16.21;39.12;100435.16;5004837;28;20137;-68
2021/05/09 05:24:41;;;;;;;4.45;2.33;;;;;;;15.56;39.84;100441.41;5002085;28;20406;-67
2021/05/09 05:27:07;;;;;;;4.20;2.40;;;;;;;15.83;39.72;100451.00;5001614;28;20116;-70
2021/05/09 05:29:32;;;;;;;5.60;2.33;;;;;;;16.97;38.34;100435.03;4987478;28;20022;-70
2021/05/09 05:31:58;;;;;;;6.30;3.05;;;;;;;16.66;37.10;100433.78;4986999;28;20026;-66
2021/05/09 05:34:23;;;;;;;3.85;2.22;;;;;;;17.25;36.46;100436.47;5000390;28;20064;-67
2021/05/09 05:36:49;;;;;;;4.30;2.22;;;;;;;16.44;38.62;100442.41;5003825;28;20053;-68
2021/05/09 05:39:15;;;;;;;4.15;2.60;;;;;;;18.05;35.29;100431.19;5002522;28;20133;-67
2021/05/09 05:41:40;;;;;;;3.50;2.38;;;;;;;18.34;34.20;100433.38;5003611;28;20099;-67
2021/05/09 05:44:07;;;;;;;6.80;2.42;;;;;;;18.08;35.19;100434.56;5002891;28;20037;-66
2021/05/09 05:46:33;;;;;;;3.78;2.40;;;;;;;18.65;35.43;100433.53;4982140;28;20514;-67
2021/05/09 05:48:58;;;;;;;10.65;2.83;;;;;;;18.60;33.76;100425.13;5001651;28;20618;-65
2021/05/09 05:51:24;;;;;;;2.97;2.50;;;;;;;19.42;32.60;100437.81;4995497;28;20038;-66
2021/05/09 05:53:54;;;;;;;5.10;1.95;;;;;;;18.80;35.31;100440.22;5001839;28;20044;-70
2021/05/09 05:56:19;;;;;;;3.22;2.20;;;;;;;19.37;32.88;100440.84;4999624;28;20506;-67
2021/05/09 05:58:45;;;;;;;6.22;2.83;;;;;;;20.52;31.79;100427.41;5002720;28;20041;-68
2021/05/09 06:01:10;;;;;;;6.03;2.10;;;;;;;20.98;31.26;100427.75;5000976;28;20029;-67
2021/05/09 06:03:36;;;;;;;4.35;2.35;;;;;;;20.77;30.72;100434.00;5001810;28;20029;-67
2021/05/09 06:06:01;;;;;;;4.65;2.90;;;;;;;21.81;29.61;100430.69;4999413;28;20550;-69
2021/05/09 06:08:27;;;;;;;2.63;1.88;;;;;;;22.52;28.38;100438.91;5002903;28;20030;-68
2021/05/09 06:10:55;;;;;;;3.80;1.40;;;;;;;22.06;28.31;100440.66;4984879;28;20026;-67
2021/05/09 06:13:22;;;;;;;2.67;1.58;;;;;;;22.15;28.53;100438.97;5003637;28;20109;-66
2021/05/09 06:15:49;;;;;;;3.25;2.35;;;;;;;20.98;29.55;100438.41;5001280;28;20029;-69
2021/05/09 06:18:15;;;;;;;4.50;2.17;;;;;;;21.00;30.64;100441.72;4992187;28;20498;-66
2021/05/09 06:20:41;;;;;;;2.05;1.45;;;;;;;21.88;29.75;100442.44;4989797;28;20041;-69
2021/05/09 06:23:08;;;;;;;2.67;1.50;;;;;;;20.80;30.50;100441.69;4998692;28;20041;-66
2021/05/09 06:25:34;;;;;;;3.88;1.13;;;;;;;21.87;28.71;100440.72;4983924;28;20096;-67
2021/05/09 06:28:00;;;;;;;1.98;1.33;;;;;;;21.96;28.10;100439.88;5003078;28;20030;-66
2021/05/09 06:30:25;;;;;;;2.85;1.27;;;;;;;22.81;27.88;100437.91;4986005;28;20030;-68
2021/05/09 06:32:52;;;;;;;3.67;1.45;;;;;;;22.66;28.65;100439.38;5000148;28;20061;-66
2021/05/09 06:35:18;;;;;;;1.70;1.25;;;;;;;23.10;26.91;100431.47;5000842;28;20084;-66
2021/05/09 06:37:44;;;;;;;3.53;1.00;;;;;;;23.22;27.29;100427.56;4986245;28;20405;-66
2021/05/09 06:40:10;;;;;;;2.60;0.80;;;;;;;21.85;30.56;100421.44;4991033;28;20049;-67
2021/05/09 06:42:36;;;;;;;2.45;1.08;;;;;;;22.40;28.55;100429.44;4998968;28;20030;-69
2021/05/09 06:45:11;;;;;;;4.30;1.73;;;;;;;22.87;28.33;100434.59;4980986;28;20164;-68
2021/05/09 06:47:36;;;;;;;2.88;1.33;;;;;;;21.84;29.25;100425.09;5002904;28;20077;-68
2021/05/09 06:50:02;;;;;;;3.10;1.25;;;;;;;22.19;29.18;100429.72;5006413;28;20026;-70
2021/05/09 06:52:28;;;;;;;3.13;0.93;;;;;;;22.12;28.85;100425.97;4987644;28;20562;-68
2021/05/09 06:54:54;;;;;;;3.25;2.05;;;;;;;23.19;27.55;100422.56;4985029;28;20132;-65
2021/05/09 06:57:20;;;;;;;2.05;1.10;;;;;;;24.73;25.86;100422.63;4985400;28;20522;-64
2021/05/09 06:59:45;;;;;;;3.25;0.95;;;;;;;24.83;25.66;100425.97;5000612;28;20360;-65
2021/05/09 07:02:11;;;;;;;3.75;0.98;;;;;;;25.20;25.03;100419.31;5002915;28;20069;-66
2021/05/09 07:04:37;;;;;;;2.17;0.93;;;;;;;24.89;24.42;100413.78;4999622;28;20030;-67
2021/05/09 07:07:03;;;;;;;1.92;0.73;;;;;;;24.27;26.11;100423.00;4999025;28;20068;-66
2021/05/09 07:09:28;;;;;;;4.35;1.63;;;;;;;22.72;28.17;100421.00;5002942;28;20048;-68
2021/05/09 07:11:54;;;;;;;1.33;0.70;;;;;;;24.47;26.44;100418.25;4982289;28;20219;-66
2021/05/09 07:14:20;;;;;;;1.73;1.25;;;;;;;25.51;24.71;100413.22;5004256;28;20071;-66
2021/05/09 07:16:46;;;;;;;3.45;1.02;;;;;;;25.42;24.98;100407.91;5001272;28;20149;-66
2021/05/09 07:19:11;;;;;;;2.30;0.77;;;;;;;25.69;24.77;100411.22;4998395;28;20043;-66
2021/05/09 07:21:45;;;;;;;2.38;1.35;;;;;;;25.73;24.32;100404.50;4980843;28;20044;-66
2021/05/09 07:24:10;;;;;;;2.13;1.10;;;;;;;25.68;25.10;100410.34;5005430;28;20120;-66
2021/05/09 07:26:36;;;;;;;3.53;0.77;;;;;;;26.07;23.48;100403.41;5001718;28;20117;-67
2021/05/09 07:29:02;;;;;;;2.63;1.02;;;;;;;25.75;24.38;100398.97;5000590;28;20100;-67
2021/05/09 07:31:27;;;;;;;6.75;1.05;;;;;;;25.58;24.57;100406.25;4981996;28;20032;-67
2021/05/09 07:33:53;;;;;;;2.25;1.00;;;;;;;24.07;26.50;100409.09;4999949;28;20034;-66
2021/05/09 07:36:18;;;;;;;4.90;1.30;;;;;;;24.48;26.53;100408.38;4999973;28;20045;-67
2021/05/09 07:38:44;;;;;;;2.50;1.20;;;;;;;26.72;24.64;100409.38;5000382;28;20041;-66
2021/05/09 07:41:09;;;;;;;3.97;0.88;;;;;;;27.97;22.25;100411.53;4999330;28;20042;-68
2021/05/09 07:43:35;;;;;;;2.13;1.02;;;;;;;26.50;23.86;100401.13;4998994;28;20037;-66
2021/05/09 07:46:00;;;;;;;2.28;0.80;;;;;;;26.96;23.16;100405.66;4999371;28;20487;-67
2021/05/09 07:48:26;;;;;;;4.68;1.10;;;;;;;25.80;24.53;100404.63;4999457;28;20080;-66
2021/05/09 07:50:51;;;;;;;3.25;0.98;;;;;;;26.67;24.97;100408.06;4984569;28;20040;-66
2021/05/09 07:53:18;;;;;;;3.03;0.85;;;;;;;26.74;23.21;100408.19;4999562;28;20114;-66
2021/05/09 07:55:44;;;;;;;2.97;0.93;;;;;;;26.65;23.99;100407.41;4998004;28;20113;-67
2021/05/09 07:58:14;;;;;;;1.77;0.73;;;;;;;25.26;25.57;100403.44;4997551;28;20061;-67
2021/05/09 08:00:40;;;;;;;2.53;1.13;;;;;;;25.15;26.68;100410.94;4981545;28;20351;-67
2021/05/09 08:03:05;;;;;;;1.75;0.80;;;;;;;26.68;24.44;100407.03;4998092;28;20269;-67
2021/05/09 08:05:31;;;;;;;5.22;0.70;;;;;;;26.79;24.45;100394.25;4999715;28;20030;-67
2021/05/09 08:07:57;;;;;;;2.08;1.02;;;;;;;25.01;25.33;100383.88;4985541;28;20434;-67
2021/05/09 08:10:25;;;;;;;1.83;0.93;;;;;;;25.78;25.81;100398.66;4988872;28;20113;-68
2021/05/09 08:12:51;;;;;;;1.52;0.57;;;;;;;25.17;25.89;100400.91;4981659;28;20088;-69
2021/05/09 08:15:22;;;;;;;1.92;0.70;;;;;;;24.85;25.79;100394.56;4999967;28;20123;-69
2021/05/09 08:17:47;;;;;;;2.38;0.90;;;;;;;23.60;27.31;100389.00;5003729;28;20044;-66
2021/05/09 08:20:13;;;;;;;6.68;1.60;;;;;;;23.39;27.84;100397.38;5001916;28;20109;-67
2021/05/09 08:22:39;;;;;;;2.63;1.00;;;;;;;24.60;27.10;100397.22;5000486;28;20025;-67
2021/05/09 08:25:07;;;;;;;4.35;0.90;;;;;;;25.34;26.85;100394.53;4988706;28;20572;-66
2021/05/09 08:27:34;;;;;;;2.80;0.80;;;;;;;24.44;26.47;100391.88;5003124;28;20034;-67
2021/05/09 08:30:01;;;;;;;2.42;1.40;;;;;;;22.26;29.21;100401.50;4987916;28;20073;-68
2021/05/09 08:32:27;;;;;;;1.38;1.13;;;;;;;22.75;29.79;100398.53;5005204;28;20060;-67
2021/05/09 08:34:54;;;;;;;3.97;0.98;;;;;;;23.81;28.43;100390.41;4986141;28;20033;-66
2021/05/09 08:37:20;;;;;;;2.58;0.60;;;;;;;23.86;28.25;100390.81;5001824;28;20034;-67
2021/05/09 08:39:45;;;;;;;1.58;1.05;;;;;;;22.94;29.02;100385.06;5001496;28;20029;-67
2021/05/09 08:42:15;;;;;;;2.35;0.95;;;;;;;22.79;29.37;100384.75;5002538;28;20041;-67
2021/05/09 08:44:44;;;;;;;2.53;0.90;;;;;;;22.80;29.19;100378.41;5000593;28;20038;-67
2021/05/09 08:47:10;;;;;;;2.13;0.47;;;;;;;23.66;28.48;100376.88;5000032;28;20038;-67
2021/05/09 08:49:41;;;;;;;3.38;0.90;;;;;;;22.70;29.96;100371.53;5001512;28;20030;-67
2021/05/09 08:52:09;;;;;;;1.48;0.60;;;;;;;24.80;27.03;100364.84;4975876;28;20242;-68
2021/05/09 08:54:36;;;;;;;2.30;0.43;;;;;;;24.83;26.85;100353.81;4986243;28;20033;-68
2021/05/09 08:57:04;;;;;;;1.75;1.17;;;;;;;24.85;26.51;100351.81;4998502;28;20044;-68
2021/05/09 08:59:30;;;;;;;4.70;0.93;;;;;;;25.51;26.29;100339.16;5001341;28;20053;-66
2021/05/09 09:01:57;;;;;;;2.78;1.25;;;;;;;22.88;28.67;100324.38;4983901;28;20038;-65
2021/05/09 09:04:23;;;;;;;4.88;0.77;;;;;;;23.96;27.42;100339.97;5001647;28;20127;-66
2021/05/09 09:06:48;;;;;;;1.80;0.52;;;;;;;25.12;26.54;100328.41;5000121;28;20292;-67
2021/05/09 09:09:22;;;;;;;1.90;0.95;;;;;;;25.54;26.91;100330.00;5001440;28;20112;-66
2021/05/09 09:11:53;;;;;;;3.17;0.85;;;;;;;26.12;26.85;100335.94;5000104;28;20120;-67
2021/05/09 09:14:25;;;;;;;1.85;0.73;;;;;;;26.03;26.38;100332.44;4998263;28;20041;-66
2021/05/09 09:17:14;;;;;;;2.63;0.80;;;;;;;23.99;28.37;100308.47;4999457;28;20361;-66
2021/05/09 09:20:08;;;;;;;3.03;0.80;;;;;;;23.85;28.76;100317.09;5000344;28;20065;-66
2021/05/09 09:22:49;;;;;;;1.75;0.90;;;;;;;22.96;30.13;100327.13;4986422;28;20483;-66
2021/05/09 09:25:15;;;;;;;1.90;1.00;;;;;;;23.61;30.07;100331.13;4984471;28;20042;-67
2021/05/09 09:27:42;;;;;;;3.13;0.57;;;;;;;22.78;29.67;100334.28;5001455;28;20025;-66
2021/05/09 09:30:08;;;;;;;2.78;0.50;;;;;;;22.56;29.97;100347.06;4997239;28;20049;-67
2021/05/09 09:32:34;;;;;;;2.40;0.45;;;;;;;23.93;28.43;100329.66;5004415;28;20412;-67
2021/05/09 09:34:59;;;;;;;2.95;0.93;;;;;;;23.04;29.16;100331.66;4999364;28;20041;-69
2021/05/09 09:37:33;;;;;;;1.38;0.68;;;;;;;23.62;28.29;100328.31;4995840;28;20044;-67
2021/05/09 09:40:00;;;;;;;1.08;0.40;;;;;;;24.39;26.83;100330.03;4998694;28;20115;-68
2021/05/09 09:42:36;;;;;;;4.65;0.60;;;;;;;25.20;26.16;100328.41;4981469;28;20327;-68
2021/05/09 09:45:37;;;;;;;3.33;0.47;;;;;;;23.91;28.22;100331.63;4983126;28;20130;-70
2021/05/09 09:48:03;;;;;;;3.10;0.30;;;;;;;24.74;26.78;100328.09;4983521;28;20062;-69
2021/05/09 09:50:50;;;;;;;2.30;0.75;;;;;;;24.81;26.43;100319.22;4995522;28;20018;-65
2021/05/09 09:53:38;;;;;;;2.42;0.68;;;;;;;23.09;27.78;100315.19;4982476;28;20034;-67
2021/05/09 09:56:13;;;;;;;1.00;0.43;;;;;;;23.50;27.75;100323.44;5000654;28;20061;-69
2021/05/09 09:58:42;;;;;;;1.10;0.50;;;;;;;23.83;27.26;100314.56;4999603;28;20030;-66
2021/05/09 10:01:08;;;;;;;2.47;0.60;;;;;;;24.70;27.24;100316.06;5001060;28;20038;-66
2021/05/09 10:03:34;;;;;;;2.63;0.70;;;;;;;24.48;25.73;100318.44;4994756;28;20030;-67
2021/05/09 10:06:00;;;;;;;1.13;0.30;;;;;;;24.37;25.51;100332.03;4998329;28;20442;-66
2021/05/09 10:08:27;;;;;;;5.55;0.75;;;;;;;24.28;25.78;100338.38;5000350;28;20571;-68
2021/05/09 10:10:53;;;;;;;2.13;0.57;;;;;;;23.98;26.98;100338.81;4999863;28;20041;-69
2021/05/09 10:13:19;;;;;;;2.45;0.32;;;;;;;23.84;27.55;100358.09;4997554;28;20431;-69
2021/05/09 10:15:45;;;;;;;2.72;0.57;;;;;;;21.42;30.49;100372.28;4996062;28;21401;-67
2021/05/09 10:18:12;;;;;;;1.00;0.60;;;;;;;22.52;30.00;100390.13;5004285;28;20251;-68
2021/05/09 10:20:40;;;;;;;3.40;0.63;;;;;;;22.46;29.17;100398.72;4994896;28;20386;-69
2021/05/09 10:23:07;;;;;;;1.90;0.77;;;;;;;21.88;30.07;100415.81;4982436;28;20042;-66
2021/05/09 10:25:47;;;;;;;2.25;0.47;;;;;;;20.91;31.50;100423.00;4996842;28;20509;-67
2021/05/09 10:28:25;;;;;;;1.67;0.47;;;;;;;20.74;31.83;100426.31;4998748;28;20081;-67
2021/05/09 10:30:56;;;;;;;2.75;0.85;;;;;;;19.96;32.83;100435.88;5002651;28;20021;-65
2021/05/09 10:33:42;;;;;;;0.82;0.40;;;;;;;20.85;32.21;100426.22;5001678;28;20116;-68
2021/05/09 10:36:08;;;;;;;2.35;0.35;;;;;;;20.93;31.78;100431.69;4985823;28;20494;-68
2021/05/09 10:39:09;;;;;;;2.20;0.57;;;;;;;20.79;31.87;100429.38;4998836;28;20034;-68
2021/05/09 10:41:54;;;;;;;6.97;0.40;;;;;;;20.74;32.05;100445.75;5001117;28;20445;-67
2021/05/09 10:44:38;;;;;;;2.88;0.90;;;;;;;19.50;34.86;100446.78;4983608;28;20091;-66
2021/05/09 10:47:06;;;;;;;1.77;0.60;;;;;;;19.11;36.83;100444.84;4996545;28;20112;-66
2021/05/09 10:49:32;;;;;;;2.67;0.57;;;;;;;18.83;37.96;100433.81;4995911;28;20037;-67
2021/05/09 10:51:57;;;;;;;3.20;0.90;;;;;;;18.82;39.27;100424.22;4983987;28;20038;-67
2021/05/09 10:54:25;;;;;;;3.30;0.70;;;;;;;18.20;40.86;100401.88;4989752;28;20486;-67
2021/05/09 10:56:53;;;;;;;6.45;1.02;;;;;;;17.22;42.63;100375.94;4984789;28;20030;-68
2021/05/09 10:59:20;;;;;;;2.35;0.68;;;;;;;16.67;45.03;100372.16;4978338;28;20021;-68
2021/05/09 11:02:05;;;;;;;4.97;0.95;;;;;;;16.29;47.42;100349.41;4977218;28;20578;-67
2021/05/09 11:04:47;;;;;;;4.88;1.25;;;;;;;16.00;47.69;100316.28;5000558;28;20030;-68
2021/05/09 11:07:41;;;;;;;2.63;1.25;;;;;;;16.19;48.25;100323.69;5004309;28;20042;-70
2021/05/09 11:10:29;;;;;;;4.03;1.25;;;;;;;16.68;47.04;100326.31;5001753;28;20109;-68
2021/05/09 11:13:02;;;;;;;2.33;0.70;;;;;;;17.18;45.21;100333.09;4998567;28;20064;-67
2021/05/09 11:15:27;;;;;;;1.60;1.05;;;;;;;17.41;44.96;100333.97;4997708;28;20581;-66
2021/05/09 11:17:54;;;;;;;4.57;0.80;;;;;;;17.32;45.45;100336.47;5001423;28;20077;-67
2021/05/09 11:20:19;;;;;;;3.22;1.30;;;;;;;16.95;46.50;100323.44;4994588;28;20510;-68
2021/05/09 11:22:45;;;;;;;3.28;1.00;;;;;;;16.34;48.58;100313.84;4982270;28;20040;-67
2021/05/09 11:25:11;;;;;;;1.55;0.80;;;;;;;16.14;48.53;100323.19;4999303;28;20049;-66
2021/05/09 11:27:45;;;;;;;3.03;0.68;;;;;;;16.31;49.26;100307.94;4986574;28;20110;-65
2021/05/09 11:30:14;;;;;;;5.95;1.30;;;;;;;16.19;48.24;100293.84;4995233;28;20105;-65
2021/05/09 11:32:47;;;;;;;3.28;0.93;;;;;;;16.02;49.19;100275.78;4980784;28;20033;-66